sensor_id;sensor_type;location;lat;lon;timestamp;P1;durP1;ratioP1;P2;durP2;ratioP2
9218;SDS011;4644;48.858;9.184;2023-05-01T00:00:51;7.45;;;6.75;;
9218;SDS011;4644;48.858;9.184;2023-05-01T00:03:19;8.27;;;7.47;;
9218;SDS011;4644;48.858;9.184;2023-05-01T00:05:46;8.15;;;7.30;;
9218;SDS011;4644;48.858;9.184;2023-05-01T00:08:14;9.32;;;7.97;;
9218;SDS011;4644;48.858;9.184;2023-05-01T00:10:41;11.60;;;8.63;;
9218;SDS011;4644;48.858;9.184;2023-05-01T00:13:08;9.02;;;7.65;;
9218;SDS011;4644;48.858;9.184;2023-05-01T00:15:35;8.80;;;7.53;;
9218;SDS011;4644;48.858;9.184;2023-05-01T00:18:01;8.73;;;7.43;;
9218;SDS011;4644;48.858;9.184;2023-05-01T00:20:30;7.75;;;7.05;;
9218;SDS011;4644;48.858;9.184;2023-05-01T00:22:57;7.40;;;6.60;;
9218;SDS011;4644;48.858;9.184;2023-05-01T00:25:24;7.95;;;6.90;;
9218;SDS011;4644;48.858;9.184;2023-05-01T00:27:51;7.57;;;6.78;;
9218;SDS011;4644;48.858;9.184;2023-05-01T00:30:18;9.48;;;7.00;;
9218;SDS011;4644;48.858;9.184;2023-05-01T00:32:45;7.70;;;6.90;;
9218;SDS011;4644;48.858;9.184;2023-05-01T00:35:12;7.95;;;6.80;;
9218;SDS011;4644;48.858;9.184;2023-05-01T00:37:40;7.85;;;7.05;;
9218;SDS011;4644;48.858;9.184;2023-05-01T00:40:07;8.82;;;7.40;;
9218;SDS011;4644;48.858;9.184;2023-05-01T00:42:34;8.55;;;7.72;;
9218;SDS011;4644;48.858;9.184;2023-05-01T00:45:03;8.50;;;7.60;;
9218;SDS011;4644;48.858;9.184;2023-05-01T00:47:31;9.27;;;7.15;;
9218;SDS011;4644;48.858;9.184;2023-05-01T00:49:59;10.10;;;7.35;;
9218;SDS011;4644;48.858;9.184;2023-05-01T00:52:26;9.63;;;7.38;;
9218;SDS011;4644;48.858;9.184;2023-05-01T00:54:55;8.00;;;7.28;;
9218;SDS011;4644;48.858;9.184;2023-05-01T00:57:23;7.90;;;7.10;;
9218;SDS011;4644;48.858;9.184;2023-05-01T00:59:50;8.07;;;7.28;;
9218;SDS011;4644;48.858;9.184;2023-05-01T01:02:17;8.50;;;7.60;;
9218;SDS011;4644;48.858;9.184;2023-05-01T01:04:44;8.27;;;7.47;;
9218;SDS011;4644;48.858;9.184;2023-05-01T01:07:15;8.55;;;7.68;;
9218;SDS011;4644;48.858;9.184;2023-05-01T01:09:49;8.75;;;7.85;;
9218;SDS011;4644;48.858;9.184;2023-05-01T01:12:30;9.48;;;8.18;;
9218;SDS011;4644;48.858;9.184;2023-05-01T01:15:04;8.65;;;7.68;;
9218;SDS011;4644;48.858;9.184;2023-05-01T01:17:41;8.82;;;7.78;;
9218;SDS011;4644;48.858;9.184;2023-05-01T01:20:20;10.25;;;7.75;;
9218;SDS011;4644;48.858;9.184;2023-05-01T01:23:03;10.10;;;8.07;;
9218;SDS011;4644;48.858;9.184;2023-05-01T01:26:11;8.50;;;7.63;;
9218;SDS011;4644;48.858;9.184;2023-05-01T01:29:03;9.68;;;8.15;;
9218;SDS011;4644;48.858;9.184;2023-05-01T01:31:51;9.25;;;7.38;;
9218;SDS011;4644;48.858;9.184;2023-05-01T01:34:32;9.18;;;7.80;;
9218;SDS011;4644;48.858;9.184;2023-05-01T01:37:01;9.10;;;7.80;;
9218;SDS011;4644;48.858;9.184;2023-05-01T01:39:36;9.07;;;8.00;;
9218;SDS011;4644;48.858;9.184;2023-05-01T01:42:09;9.18;;;7.90;;
9218;SDS011;4644;48.858;9.184;2023-05-01T01:44:49;8.35;;;7.55;;
9218;SDS011;4644;48.858;9.184;2023-05-01T01:47:19;10.23;;;8.02;;
9218;SDS011;4644;48.858;9.184;2023-05-01T01:49:53;9.32;;;7.63;;
9218;SDS011;4644;48.858;9.184;2023-05-01T01:52:21;8.45;;;7.55;;
9218;SDS011;4644;48.858;9.184;2023-05-01T01:54:50;10.55;;;7.43;;
9218;SDS011;4644;48.858;9.184;2023-05-01T01:57:20;8.07;;;7.28;;
9218;SDS011;4644;48.858;9.184;2023-05-01T01:59:50;8.88;;;7.97;;
9218;SDS011;4644;48.858;9.184;2023-05-01T02:02:20;9.73;;;8.02;;
9218;SDS011;4644;48.858;9.184;2023-05-01T02:04:48;9.23;;;8.33;;
9218;SDS011;4644;48.858;9.184;2023-05-01T02:07:19;10.80;;;8.75;;
9218;SDS011;4644;48.858;9.184;2023-05-01T02:09:47;9.50;;;8.27;;
9218;SDS011;4644;48.858;9.184;2023-05-01T02:12:16;11.20;;;9.02;;
9218;SDS011;4644;48.858;9.184;2023-05-01T02:14:44;10.02;;;8.75;;
9218;SDS011;4644;48.858;9.184;2023-05-01T02:17:13;10.52;;;8.80;;
9218;SDS011;4644;48.858;9.184;2023-05-01T02:19:40;8.90;;;8.00;;
9218;SDS011;4644;48.858;9.184;2023-05-01T02:22:09;9.13;;;8.23;;
9218;SDS011;4644;48.858;9.184;2023-05-01T02:24:39;8.93;;;8.02;;
9218;SDS011;4644;48.858;9.184;2023-05-01T02:27:10;10.10;;;8.30;;
9218;SDS011;4644;48.858;9.184;2023-05-01T02:29:40;8.48;;;7.57;;
9218;SDS011;4644;48.858;9.184;2023-05-01T02:32:08;9.18;;;8.15;;
9218;SDS011;4644;48.858;9.184;2023-05-01T02:34:36;8.95;;;8.05;;
9218;SDS011;4644;48.858;9.184;2023-05-01T02:37:03;8.50;;;7.60;;
9218;SDS011;4644;48.858;9.184;2023-05-01T02:39:33;9.17;;;7.60;;
9218;SDS011;4644;48.858;9.184;2023-05-01T02:42:02;8.85;;;7.95;;
9218;SDS011;4644;48.858;9.184;2023-05-01T02:44:31;8.90;;;7.68;;
9218;SDS011;4644;48.858;9.184;2023-05-01T02:47:05;8.05;;;7.22;;
9218;SDS011;4644;48.858;9.184;2023-05-01T02:49:33;8.48;;;7.68;;
9218;SDS011;4644;48.858;9.184;2023-05-01T02:52:01;8.02;;;7.22;;
9218;SDS011;4644;48.858;9.184;2023-05-01T02:54:29;8.52;;;7.72;;
9218;SDS011;4644;48.858;9.184;2023-05-01T02:56:56;7.93;;;7.20;;
9218;SDS011;4644;48.858;9.184;2023-05-01T02:59:25;7.77;;;6.97;;
9218;SDS011;4644;48.858;9.184;2023-05-01T03:01:51;7.50;;;6.70;;
9218;SDS011;4644;48.858;9.184;2023-05-01T03:04:18;7.68;;;6.88;;
9218;SDS011;4644;48.858;9.184;2023-05-01T03:06:45;7.30;;;6.47;;
9218;SDS011;4644;48.858;9.184;2023-05-01T03:09:12;7.13;;;6.43;;
9218;SDS011;4644;48.858;9.184;2023-05-01T03:11:39;8.13;;;6.32;;
9218;SDS011;4644;48.858;9.184;2023-05-01T03:14:06;6.90;;;6.20;;
9218;SDS011;4644;48.858;9.184;2023-05-01T03:16:35;6.80;;;6.10;;
9218;SDS011;4644;48.858;9.184;2023-05-01T03:19:02;7.15;;;6.38;;
9218;SDS011;4644;48.858;9.184;2023-05-01T03:21:30;6.20;;;5.60;;
9218;SDS011;4644;48.858;9.184;2023-05-01T03:23:57;6.50;;;5.90;;
9218;SDS011;4644;48.858;9.184;2023-05-01T03:26:25;6.88;;;6.07;;
9218;SDS011;4644;48.858;9.184;2023-05-01T03:28:52;6.82;;;5.90;;
9218;SDS011;4644;48.858;9.184;2023-05-01T03:31:19;6.35;;;5.75;;
9218;SDS011;4644;48.858;9.184;2023-05-01T03:33:48;6.30;;;5.60;;
9218;SDS011;4644;48.858;9.184;2023-05-01T03:36:15;6.88;;;6.18;;
9218;SDS011;4644;48.858;9.184;2023-05-01T03:38:42;7.35;;;6.40;;
9218;SDS011;4644;48.858;9.184;2023-05-01T03:41:09;6.53;;;5.93;;
9218;SDS011;4644;48.858;9.184;2023-05-01T03:43:36;7.22;;;6.35;;
9218;SDS011;4644;48.858;9.184;2023-05-01T03:46:03;7.50;;;6.30;;
9218;SDS011;4644;48.858;9.184;2023-05-01T03:48:30;7.25;;;6.30;;
9218;SDS011;4644;48.858;9.184;2023-05-01T03:50:59;8.38;;;6.85;;
9218;SDS011;4644;48.858;9.184;2023-05-01T03:53:26;6.63;;;6.00;;
9218;SDS011;4644;48.858;9.184;2023-05-01T03:55:53;7.23;;;6.00;;
9218;SDS011;4644;48.858;9.184;2023-05-01T03:58:20;7.90;;;6.55;;
9218;SDS011;4644;48.858;9.184;2023-05-01T04:00:47;6.90;;;6.20;;
9218;SDS011;4644;48.858;9.184;2023-05-01T04:03:14;6.60;;;5.90;;
9218;SDS011;4644;48.858;9.184;2023-05-01T04:05:41;6.38;;;5.78;;
9218;SDS011;4644;48.858;9.184;2023-05-01T04:08:10;7.38;;;5.97;;
9218;SDS011;4644;48.858;9.184;2023-05-01T04:10:37;6.93;;;6.33;;
9218;SDS011;4644;48.858;9.184;2023-05-01T04:13:03;6.90;;;6.30;;
9218;SDS011;4644;48.858;9.184;2023-05-01T04:15:31;6.75;;;6.13;;
9218;SDS011;4644;48.858;9.184;2023-05-01T04:17:57;6.60;;;6.00;;
9218;SDS011;4644;48.858;9.184;2023-05-01T04:20:24;6.75;;;5.75;;
9218;SDS011;4644;48.858;9.184;2023-05-01T04:22:51;6.57;;;5.97;;
9218;SDS011;4644;48.858;9.184;2023-05-01T04:25:20;7.43;;;6.07;;
9218;SDS011;4644;48.858;9.184;2023-05-01T04:27:47;6.30;;;5.70;;
9218;SDS011;4644;48.858;9.184;2023-05-01T04:30:14;6.77;;;6.17;;
9218;SDS011;4644;48.858;9.184;2023-05-01T04:32:41;7.07;;;6.38;;
9218;SDS011;4644;48.858;9.184;2023-05-01T04:35:08;7.10;;;6.15;;
9218;SDS011;4644;48.858;9.184;2023-05-01T04:37:36;6.38;;;5.78;;
9218;SDS011;4644;48.858;9.184;2023-05-01T04:40:03;6.65;;;6.03;;
9218;SDS011;4644;48.858;9.184;2023-05-01T04:42:32;6.65;;;5.95;;
9218;SDS011;4644;48.858;9.184;2023-05-01T04:44:59;5.88;;;5.38;;
9218;SDS011;4644;48.858;9.184;2023-05-01T04:47:28;6.30;;;5.70;;
9218;SDS011;4644;48.858;9.184;2023-05-01T04:49:55;6.55;;;5.90;;
9218;SDS011;4644;48.858;9.184;2023-05-01T04:52:22;7.85;;;6.15;;
9218;SDS011;4644;48.858;9.184;2023-05-01T04:54:49;7.05;;;6.07;;
9218;SDS011;4644;48.858;9.184;2023-05-01T04:57:16;6.80;;;6.10;;
9218;SDS011;4644;48.858;9.184;2023-05-01T04:59:44;6.57;;;5.95;;
9218;SDS011;4644;48.858;9.184;2023-05-01T05:02:11;6.43;;;5.70;;
9218;SDS011;4644;48.858;9.184;2023-05-01T05:04:38;6.38;;;5.78;;
9218;SDS011;4644;48.858;9.184;2023-05-01T05:07:05;6.75;;;5.63;;
9218;SDS011;4644;48.858;9.184;2023-05-01T05:09:33;7.57;;;6.30;;
9218;SDS011;4644;48.858;9.184;2023-05-01T05:12:00;7.13;;;5.82;;
9218;SDS011;4644;48.858;9.184;2023-05-01T05:14:28;6.20;;;5.60;;
9218;SDS011;4644;48.858;9.184;2023-05-01T05:16:56;6.50;;;5.65;;
9218;SDS011;4644;48.858;9.184;2023-05-01T05:19:23;6.60;;;6.00;;
9218;SDS011;4644;48.858;9.184;2023-05-01T05:21:50;6.53;;;5.93;;
9218;SDS011;4644;48.858;9.184;2023-05-01T05:24:17;6.63;;;5.60;;
9218;SDS011;4644;48.858;9.184;2023-05-01T05:26:44;5.90;;;5.40;;
9218;SDS011;4644;48.858;9.184;2023-05-01T05:29:11;6.15;;;5.63;;
9218;SDS011;4644;48.858;9.184;2023-05-01T05:31:38;6.50;;;5.90;;
9218;SDS011;4644;48.858;9.184;2023-05-01T05:34:06;7.93;;;5.88;;
9218;SDS011;4644;48.858;9.184;2023-05-01T05:36:33;6.80;;;6.03;;
9218;SDS011;4644;48.858;9.184;2023-05-01T05:39:00;6.95;;;5.75;;
9218;SDS011;4644;48.858;9.184;2023-05-01T05:41:28;7.13;;;6.40;;
9218;SDS011;4644;48.858;9.184;2023-05-01T05:43:55;6.60;;;5.97;;
9218;SDS011;4644;48.858;9.184;2023-05-01T05:46:22;7.45;;;6.00;;
9218;SDS011;4644;48.858;9.184;2023-05-01T05:48:48;6.23;;;5.63;;
9218;SDS011;4644;48.858;9.184;2023-05-01T05:51:17;6.30;;;5.70;;
9218;SDS011;4644;48.858;9.184;2023-05-01T05:53:44;7.43;;;5.47;;
9218;SDS011;4644;48.858;9.184;2023-05-01T05:56:10;6.07;;;5.50;;
9218;SDS011;4644;48.858;9.184;2023-05-01T05:58:37;6.40;;;5.50;;
9218;SDS011;4644;48.858;9.184;2023-05-01T06:01:04;6.88;;;5.63;;
9218;SDS011;4644;48.858;9.184;2023-05-01T06:03:33;5.43;;;4.93;;
9218;SDS011;4644;48.858;9.184;2023-05-01T06:06:01;6.47;;;5.18;;
9218;SDS011;4644;48.858;9.184;2023-05-01T06:08:29;5.80;;;5.20;;
9218;SDS011;4644;48.858;9.184;2023-05-01T06:10:56;8.50;;;6.10;;
9218;SDS011;4644;48.858;9.184;2023-05-01T06:13:23;6.27;;;5.60;;
9218;SDS011;4644;48.858;9.184;2023-05-01T06:15:50;6.00;;;5.40;;
9218;SDS011;4644;48.858;9.184;2023-05-01T06:18:17;6.00;;;5.40;;
9218;SDS011;4644;48.858;9.184;2023-05-01T06:20:44;7.13;;;5.47;;
9218;SDS011;4644;48.858;9.184;2023-05-01T06:23:11;6.18;;;5.40;;
9218;SDS011;4644;48.858;9.184;2023-05-01T06:25:41;6.38;;;5.40;;
9218;SDS011;4644;48.858;9.184;2023-05-01T06:28:08;7.23;;;5.40;;
9218;SDS011;4644;48.858;9.184;2023-05-01T06:30:35;5.50;;;5.00;;
9218;SDS011;4644;48.858;9.184;2023-05-01T06:33:02;5.78;;;5.28;;
9218;SDS011;4644;48.858;9.184;2023-05-01T06:35:29;5.72;;;5.07;;
9218;SDS011;4644;48.858;9.184;2023-05-01T06:37:56;5.65;;;5.15;;
9218;SDS011;4644;48.858;9.184;2023-05-01T06:40:24;5.60;;;5.10;;
9218;SDS011;4644;48.858;9.184;2023-05-01T06:42:52;6.18;;;5.03;;
9218;SDS011;4644;48.858;9.184;2023-05-01T06:45:19;6.22;;;5.63;;
9218;SDS011;4644;48.858;9.184;2023-05-01T06:47:46;5.77;;;5.27;;
9218;SDS011;4644;48.858;9.184;2023-05-01T06:50:13;5.90;;;5.30;;
9218;SDS011;4644;48.858;9.184;2023-05-01T06:52:40;6.07;;;5.47;;
9218;SDS011;4644;48.858;9.184;2023-05-01T06:55:07;5.97;;;4.97;;
9218;SDS011;4644;48.858;9.184;2023-05-01T06:57:36;6.05;;;5.47;;
9218;SDS011;4644;48.858;9.184;2023-05-01T07:00:06;6.00;;;5.40;;
9218;SDS011;4644;48.858;9.184;2023-05-01T07:02:34;5.95;;;5.35;;
9218;SDS011;4644;48.858;9.184;2023-05-01T07:05:02;5.47;;;4.97;;
9218;SDS011;4644;48.858;9.184;2023-05-01T07:07:29;6.95;;;5.13;;
9218;SDS011;4644;48.858;9.184;2023-05-01T07:09:56;6.10;;;5.17;;
9218;SDS011;4644;48.858;9.184;2023-05-01T07:12:23;5.90;;;5.30;;
9218;SDS011;4644;48.858;9.184;2023-05-01T07:14:50;6.57;;;5.65;;
9218;SDS011;4644;48.858;9.184;2023-05-01T07:17:19;6.15;;;5.57;;
9218;SDS011;4644;48.858;9.184;2023-05-01T07:19:46;7.07;;;6.38;;
9218;SDS011;4644;48.858;9.184;2023-05-01T07:22:14;7.03;;;5.85;;
9218;SDS011;4644;48.858;9.184;2023-05-01T07:24:41;6.68;;;5.88;;
9218;SDS011;4644;48.858;9.184;2023-05-01T07:27:08;7.13;;;6.43;;
9218;SDS011;4644;48.858;9.184;2023-05-01T07:29:37;7.15;;;6.18;;
9218;SDS011;4644;48.858;9.184;2023-05-01T07:32:04;7.25;;;6.47;;
9218;SDS011;4644;48.858;9.184;2023-05-01T07:34:33;7.70;;;6.88;;
9218;SDS011;4644;48.858;9.184;2023-05-01T07:37:00;7.60;;;6.75;;
9218;SDS011;4644;48.858;9.184;2023-05-01T07:39:28;7.05;;;6.38;;
9218;SDS011;4644;48.858;9.184;2023-05-01T07:41:55;7.15;;;6.45;;
9218;SDS011;4644;48.858;9.184;2023-05-01T07:44:23;6.80;;;6.10;;
9218;SDS011;4644;48.858;9.184;2023-05-01T07:46:49;7.53;;;6.65;;
9218;SDS011;4644;48.858;9.184;2023-05-01T07:49:16;6.90;;;6.20;;
9218;SDS011;4644;48.858;9.184;2023-05-01T07:51:45;8.45;;;6.68;;
9218;SDS011;4644;48.858;9.184;2023-05-01T07:54:12;7.30;;;6.60;;
9218;SDS011;4644;48.858;9.184;2023-05-01T07:56:41;6.22;;;5.63;;
9218;SDS011;4644;48.858;9.184;2023-05-01T07:59:07;6.78;;;6.07;;
9218;SDS011;4644;48.858;9.184;2023-05-01T08:01:35;6.68;;;6.07;;
9218;SDS011;4644;48.858;9.184;2023-05-01T08:04:02;7.22;;;6.32;;
9218;SDS011;4644;48.858;9.184;2023-05-01T08:06:29;6.88;;;6.18;;
9218;SDS011;4644;48.858;9.184;2023-05-01T08:08:58;6.70;;;6.10;;
9218;SDS011;4644;48.858;9.184;2023-05-01T08:11:25;7.70;;;6.65;;
9218;SDS011;4644;48.858;9.184;2023-05-01T08:13:53;7.50;;;6.00;;
9218;SDS011;4644;48.858;9.184;2023-05-01T08:16:20;6.72;;;6.10;;
9218;SDS011;4644;48.858;9.184;2023-05-01T08:18:47;8.30;;;6.97;;
9218;SDS011;4644;48.858;9.184;2023-05-01T08:21:14;7.60;;;6.75;;
9218;SDS011;4644;48.858;9.184;2023-05-01T08:23:41;7.50;;;6.80;;
9218;SDS011;4644;48.858;9.184;2023-05-01T08:26:09;7.43;;;6.55;;
9218;SDS011;4644;48.858;9.184;2023-05-01T08:28:36;7.65;;;6.80;;
9218;SDS011;4644;48.858;9.184;2023-05-01T08:31:03;7.75;;;6.85;;
9218;SDS011;4644;48.858;9.184;2023-05-01T08:33:30;7.85;;;6.47;;
9218;SDS011;4644;48.858;9.184;2023-05-01T08:35:58;7.65;;;6.95;;
9218;SDS011;4644;48.858;9.184;2023-05-01T08:38:24;6.80;;;6.20;;
9218;SDS011;4644;48.858;9.184;2023-05-01T08:40:52;7.50;;;6.80;;
9218;SDS011;4644;48.858;9.184;2023-05-01T08:43:22;6.50;;;5.90;;
9218;SDS011;4644;48.858;9.184;2023-05-01T08:45:55;8.40;;;6.50;;
9218;SDS011;4644;48.858;9.184;2023-05-01T08:48:25;7.03;;;5.90;;
9218;SDS011;4644;48.858;9.184;2023-05-01T08:50:54;6.78;;;6.13;;
9218;SDS011;4644;48.858;9.184;2023-05-01T08:53:23;6.70;;;6.00;;
9218;SDS011;4644;48.858;9.184;2023-05-01T08:55:52;6.90;;;6.25;;
9218;SDS011;4644;48.858;9.184;2023-05-01T08:58:20;7.87;;;6.57;;
9218;SDS011;4644;48.858;9.184;2023-05-01T09:00:52;6.90;;;6.18;;
9218;SDS011;4644;48.858;9.184;2023-05-01T09:03:20;7.32;;;6.10;;
9218;SDS011;4644;48.858;9.184;2023-05-01T09:05:47;6.15;;;5.55;;
9218;SDS011;4644;48.858;9.184;2023-05-01T09:08:16;6.88;;;5.78;;
9218;SDS011;4644;48.858;9.184;2023-05-01T09:10:44;6.30;;;5.70;;
9218;SDS011;4644;48.858;9.184;2023-05-01T09:13:13;6.72;;;6.03;;
9218;SDS011;4644;48.858;9.184;2023-05-01T09:15:41;7.30;;;6.13;;
9218;SDS011;4644;48.858;9.184;2023-05-01T09:18:10;6.80;;;5.85;;
9218;SDS011;4644;48.858;9.184;2023-05-01T09:20:37;8.52;;;5.80;;
9218;SDS011;4644;48.858;9.184;2023-05-01T09:23:05;6.57;;;5.93;;
9218;SDS011;4644;48.858;9.184;2023-05-01T09:25:32;7.30;;;6.05;;
9218;SDS011;4644;48.858;9.184;2023-05-01T09:27:59;6.35;;;5.85;;
9218;SDS011;4644;48.858;9.184;2023-05-01T09:30:29;6.50;;;5.90;;
9218;SDS011;4644;48.858;9.184;2023-05-01T09:33:05;6.70;;;5.90;;
9218;SDS011;4644;48.858;9.184;2023-05-01T09:35:46;6.45;;;5.85;;
9218;SDS011;4644;48.858;9.184;2023-05-01T09:38:18;7.18;;;6.15;;
9218;SDS011;4644;48.858;9.184;2023-05-01T09:40:45;6.30;;;5.75;;
9218;SDS011;4644;48.858;9.184;2023-05-01T09:43:12;7.00;;;6.30;;
9218;SDS011;4644;48.858;9.184;2023-05-01T09:45:41;8.07;;;6.03;;
9218;SDS011;4644;48.858;9.184;2023-05-01T09:48:09;6.40;;;5.75;;
9218;SDS011;4644;48.858;9.184;2023-05-01T09:50:37;7.07;;;6.38;;
9218;SDS011;4644;48.858;9.184;2023-05-01T09:53:06;7.47;;;6.40;;
9218;SDS011;4644;48.858;9.184;2023-05-01T09:55:33;6.47;;;5.88;;
9218;SDS011;4644;48.858;9.184;2023-05-01T09:58:00;6.20;;;5.63;;
9218;SDS011;4644;48.858;9.184;2023-05-01T10:00:27;6.60;;;5.88;;
9218;SDS011;4644;48.858;9.184;2023-05-01T10:02:54;6.50;;;5.85;;
9218;SDS011;4644;48.858;9.184;2023-05-01T10:05:23;6.80;;;6.00;;
9218;SDS011;4644;48.858;9.184;2023-05-01T10:07:56;6.30;;;5.70;;
9218;SDS011;4644;48.858;9.184;2023-05-01T10:10:26;6.47;;;5.88;;
9218;SDS011;4644;48.858;9.184;2023-05-01T10:12:53;6.50;;;5.88;;
9218;SDS011;4644;48.858;9.184;2023-05-01T10:15:20;6.25;;;5.68;;
9218;SDS011;4644;48.858;9.184;2023-05-01T10:17:48;6.57;;;5.87;;
9218;SDS011;4644;48.858;9.184;2023-05-01T10:20:16;6.85;;;6.25;;
9218;SDS011;4644;48.858;9.184;2023-05-01T10:22:45;6.50;;;5.80;;
9218;SDS011;4644;48.858;9.184;2023-05-01T10:25:12;5.68;;;5.20;;
9218;SDS011;4644;48.858;9.184;2023-05-01T10:27:39;6.53;;;5.60;;
9218;SDS011;4644;48.858;9.184;2023-05-01T10:30:07;6.25;;;5.22;;
9218;SDS011;4644;48.858;9.184;2023-05-01T10:32:35;5.30;;;4.80;;
9218;SDS011;4644;48.858;9.184;2023-05-01T10:35:04;5.35;;;4.82;;
9218;SDS011;4644;48.858;9.184;2023-05-01T10:37:37;5.85;;;5.13;;
9218;SDS011;4644;48.858;9.184;2023-05-01T10:43:12;5.70;;;5.15;;
9218;SDS011;4644;48.858;9.184;2023-05-01T10:45:44;6.47;;;5.80;;
9218;SDS011;4644;48.858;9.184;2023-05-01T10:48:11;5.68;;;5.18;;
9218;SDS011;4644;48.858;9.184;2023-05-01T10:51:08;11.20;;;9.20;;
9218;SDS011;4644;48.858;9.184;2023-05-01T10:53:36;7.78;;;6.05;;
9218;SDS011;4644;48.858;9.184;2023-05-01T10:56:05;10.02;;;8.93;;
9218;SDS011;4644;48.858;9.184;2023-05-01T10:58:54;6.00;;;5.40;;
9218;SDS011;4644;48.858;9.184;2023-05-01T11:01:26;5.70;;;5.20;;
9218;SDS011;4644;48.858;9.184;2023-05-01T11:03:54;7.10;;;5.18;;
9218;SDS011;4644;48.858;9.184;2023-05-01T11:06:23;5.50;;;4.90;;
9218;SDS011;4644;48.858;9.184;2023-05-01T11:08:51;5.53;;;4.72;;
9218;SDS011;4644;48.858;9.184;2023-05-01T11:14:14;6.05;;;5.45;;
9218;SDS011;4644;48.858;9.184;2023-05-01T11:16:42;5.78;;;5.28;;
9218;SDS011;4644;48.858;9.184;2023-05-01T11:22:14;5.85;;;5.10;;
9218;SDS011;4644;48.858;9.184;2023-05-01T11:24:42;5.35;;;4.80;;
9218;SDS011;4644;48.858;9.184;2023-05-01T11:27:14;5.70;;;5.10;;
9218;SDS011;4644;48.858;9.184;2023-05-01T11:29:44;5.65;;;5.10;;
9218;SDS011;4644;48.858;9.184;2023-05-01T11:32:17;6.32;;;5.72;;
9218;SDS011;4644;48.858;9.184;2023-05-01T11:34:45;5.43;;;4.93;;
9218;SDS011;4644;48.858;9.184;2023-05-01T11:37:13;5.88;;;5.28;;
9218;SDS011;4644;48.858;9.184;2023-05-01T11:39:46;5.77;;;5.27;;
9218;SDS011;4644;48.858;9.184;2023-05-01T11:42:16;6.20;;;5.60;;
9218;SDS011;4644;48.858;9.184;2023-05-01T11:47:32;5.90;;;5.40;;
9218;SDS011;4644;48.858;9.184;2023-05-01T11:49:59;6.00;;;5.50;;
9218;SDS011;4644;48.858;9.184;2023-05-01T11:52:26;6.15;;;5.55;;
9218;SDS011;4644;48.858;9.184;2023-05-01T11:54:54;6.40;;;5.10;;
9218;SDS011;4644;48.858;9.184;2023-05-01T11:57:22;5.90;;;5.40;;
9218;SDS011;4644;48.858;9.184;2023-05-01T11:59:50;7.85;;;5.55;;
9218;SDS011;4644;48.858;9.184;2023-05-01T12:02:17;6.13;;;5.60;;
9218;SDS011;4644;48.858;9.184;2023-05-01T12:04:45;5.90;;;5.30;;
9218;SDS011;4644;48.858;9.184;2023-05-01T12:07:19;6.20;;;5.60;;
9218;SDS011;4644;48.858;9.184;2023-05-01T12:09:47;6.03;;;5.53;;
9218;SDS011;4644;48.858;9.184;2023-05-01T12:12:15;7.40;;;6.57;;
9218;SDS011;4644;48.858;9.184;2023-05-01T12:14:43;9.55;;;8.55;;
9218;SDS011;4644;48.858;9.184;2023-05-01T12:17:10;6.55;;;5.95;;
9218;SDS011;4644;48.858;9.184;2023-05-01T12:19:47;5.80;;;5.30;;
9218;SDS011;4644;48.858;9.184;2023-05-01T12:22:14;6.97;;;5.57;;
9218;SDS011;4644;48.858;9.184;2023-05-01T12:24:47;6.00;;;5.47;;
9218;SDS011;4644;48.858;9.184;2023-05-01T12:27:16;6.05;;;5.45;;
9218;SDS011;4644;48.858;9.184;2023-05-01T12:29:44;6.28;;;5.65;;
9218;SDS011;4644;48.858;9.184;2023-05-01T12:32:12;6.35;;;5.70;;
9218;SDS011;4644;48.858;9.184;2023-05-01T12:34:41;6.15;;;5.45;;
9218;SDS011;4644;48.858;9.184;2023-05-01T12:37:08;6.20;;;5.60;;
9218;SDS011;4644;48.858;9.184;2023-05-01T12:39:35;6.18;;;5.68;;
9218;SDS011;4644;48.858;9.184;2023-05-01T12:42:10;7.72;;;6.05;;
9218;SDS011;4644;48.858;9.184;2023-05-01T12:44:38;6.18;;;5.57;;
9218;SDS011;4644;48.858;9.184;2023-05-01T12:47:07;6.43;;;5.80;;
9218;SDS011;4644;48.858;9.184;2023-05-01T12:49:35;6.38;;;5.78;;
9218;SDS011;4644;48.858;9.184;2023-05-01T12:52:05;6.50;;;5.90;;
9218;SDS011;4644;48.858;9.184;2023-05-01T12:54:33;6.25;;;5.65;;
9218;SDS011;4644;48.858;9.184;2023-05-01T12:57:05;6.70;;;6.10;;
9218;SDS011;4644;48.858;9.184;2023-05-01T12:59:34;6.78;;;6.13;;
9218;SDS011;4644;48.858;9.184;2023-05-01T13:02:02;7.70;;;5.57;;
9218;SDS011;4644;48.858;9.184;2023-05-01T13:04:31;6.53;;;5.93;;
9218;SDS011;4644;48.858;9.184;2023-05-01T13:06:59;5.95;;;5.35;;
9218;SDS011;4644;48.858;9.184;2023-05-01T13:09:27;7.10;;;6.13;;
9218;SDS011;4644;48.858;9.184;2023-05-01T13:11:56;5.85;;;5.28;;
9218;SDS011;4644;48.858;9.184;2023-05-01T13:14:29;6.32;;;5.47;;
9218;SDS011;4644;48.858;9.184;2023-05-01T13:17:01;6.20;;;5.13;;
9218;SDS011;4644;48.858;9.184;2023-05-01T13:19:28;8.15;;;5.50;;
9218;SDS011;4644;48.858;9.184;2023-05-01T13:21:57;6.17;;;5.57;;
9218;SDS011;4644;48.858;9.184;2023-05-01T13:24:24;6.10;;;5.50;;
9218;SDS011;4644;48.858;9.184;2023-05-01T13:27:01;5.80;;;5.20;;
9218;SDS011;4644;48.858;9.184;2023-05-01T13:29:30;6.15;;;5.55;;
9218;SDS011;4644;48.858;9.184;2023-05-01T13:31:58;6.50;;;5.90;;
9218;SDS011;4644;48.858;9.184;2023-05-01T13:34:28;6.55;;;5.85;;
9218;SDS011;4644;48.858;9.184;2023-05-01T13:36:57;6.82;;;5.97;;
9218;SDS011;4644;48.858;9.184;2023-05-01T13:39:25;7.73;;;6.00;;
9218;SDS011;4644;48.858;9.184;2023-05-01T13:41:52;6.75;;;5.95;;
9218;SDS011;4644;48.858;9.184;2023-05-01T13:44:20;7.75;;;6.35;;
9218;SDS011;4644;48.858;9.184;2023-05-01T13:46:47;7.28;;;6.57;;
9218;SDS011;4644;48.858;9.184;2023-05-01T13:49:15;7.85;;;6.82;;
9218;SDS011;4644;48.858;9.184;2023-05-01T13:51:45;7.68;;;6.88;;
9218;SDS011;4644;48.858;9.184;2023-05-01T13:54:14;7.70;;;7.00;;
9218;SDS011;4644;48.858;9.184;2023-05-01T13:56:42;8.32;;;6.60;;
9218;SDS011;4644;48.858;9.184;2023-05-01T13:59:10;6.95;;;6.35;;
9218;SDS011;4644;48.858;9.184;2023-05-01T14:01:38;8.25;;;7.50;;
9218;SDS011;4644;48.858;9.184;2023-05-01T14:04:12;8.80;;;8.00;;
9218;SDS011;4644;48.858;9.184;2023-05-01T14:06:42;8.40;;;7.50;;
9218;SDS011;4644;48.858;9.184;2023-05-01T14:09:10;8.65;;;7.55;;
9218;SDS011;4644;48.858;9.184;2023-05-01T14:11:46;7.47;;;6.65;;
9218;SDS011;4644;48.858;9.184;2023-05-01T14:14:16;8.75;;;7.70;;
9218;SDS011;4644;48.858;9.184;2023-05-01T14:16:46;7.38;;;6.72;;
9218;SDS011;4644;48.858;9.184;2023-05-01T14:19:14;8.10;;;7.40;;
9218;SDS011;4644;48.858;9.184;2023-05-01T14:21:42;7.70;;;7.00;;
9218;SDS011;4644;48.858;9.184;2023-05-01T14:24:09;6.97;;;6.35;;
9218;SDS011;4644;48.858;9.184;2023-05-01T14:26:37;6.55;;;5.95;;
9218;SDS011;4644;48.858;9.184;2023-05-01T14:29:13;6.90;;;6.20;;
9218;SDS011;4644;48.858;9.184;2023-05-01T14:31:47;7.30;;;6.60;;
9218;SDS011;4644;48.858;9.184;2023-05-01T14:34:14;6.88;;;6.18;;
9218;SDS011;4644;48.858;9.184;2023-05-01T14:36:43;6.57;;;5.90;;
9218;SDS011;4644;48.858;9.184;2023-05-01T14:39:10;6.80;;;6.10;;
9218;SDS011;4644;48.858;9.184;2023-05-01T14:41:40;6.68;;;6.00;;
9218;SDS011;4644;48.858;9.184;2023-05-01T14:44:10;6.45;;;5.70;;
9218;SDS011;4644;48.858;9.184;2023-05-01T14:46:42;8.57;;;6.00;;
9218;SDS011;4644;48.858;9.184;2023-05-01T14:49:15;7.03;;;6.35;;
9218;SDS011;4644;48.858;9.184;2023-05-01T14:51:44;6.88;;;6.18;;
9218;SDS011;4644;48.858;9.184;2023-05-01T14:54:11;7.15;;;6.45;;
9218;SDS011;4644;48.858;9.184;2023-05-01T14:56:39;7.55;;;6.30;;
9218;SDS011;4644;48.858;9.184;2023-05-01T14:59:07;6.93;;;6.32;;
9218;SDS011;4644;48.858;9.184;2023-05-01T15:01:34;7.07;;;6.38;;
9218;SDS011;4644;48.858;9.184;2023-05-01T15:04:02;6.40;;;5.80;;
9218;SDS011;4644;48.858;9.184;2023-05-01T15:06:30;7.10;;;6.40;;
9218;SDS011;4644;48.858;9.184;2023-05-01T15:08:57;8.27;;;6.45;;
9218;SDS011;4644;48.858;9.184;2023-05-01T15:11:25;7.82;;;6.65;;
9218;SDS011;4644;48.858;9.184;2023-05-01T15:13:53;7.72;;;6.50;;
9218;SDS011;4644;48.858;9.184;2023-05-01T15:16:20;6.70;;;6.10;;
9218;SDS011;4644;48.858;9.184;2023-05-01T15:18:47;6.85;;;6.25;;
9218;SDS011;4644;48.858;9.184;2023-05-01T15:21:16;7.40;;;6.50;;
9218;SDS011;4644;48.858;9.184;2023-05-01T15:23:43;9.15;;;6.57;;
9218;SDS011;4644;48.858;9.184;2023-05-01T15:26:10;7.72;;;6.25;;
9218;SDS011;4644;48.858;9.184;2023-05-01T15:28:37;6.28;;;5.68;;
9218;SDS011;4644;48.858;9.184;2023-05-01T15:31:04;7.25;;;6.55;;
9218;SDS011;4644;48.858;9.184;2023-05-01T15:33:31;7.97;;;7.28;;
9218;SDS011;4644;48.858;9.184;2023-05-01T15:35:58;7.93;;;7.13;;